Hoyt Heights, South Carolina
Current Conditions -  °F | °C
As of 11:15 PM on Monday 22 Dec 2014 (Local Time) from KSMS Reporting Station
Haze Haze  
Wind Chill: 38°   Ceiling: 300
Heat Index: 43°   Visibility: 1.5mi
Dew Point: 43°   Wind: 8mph
Humidity: 100%   Direction: 40°NE
Pressure: 30.04"   Gusts: NA
Location:  33.9242°N, 80.1986°W
Report Text: KSMS 230415Z AUTO 04007KT 1 1/2SM BR OVC003 06/06 A3004 RMK AO2
Loading
Personal Weather Stations






























Interactive Weather Map New forecast layout! Learn more

10-Day Weather Forecast

Advertisements
Track Severe Weather on mobile